sensor_id;sensor_type;location;lat;lon;timestamp;P1;durP1;ratioP1;P2;durP2;ratioP2
18172;SDS011;9211;48.818;9.312;2024-03-23T00:51:29;11.50;;;6.85;;
18172;SDS011;9211;48.818;9.312;2024-03-23T00:53:56;13.73;;;7.35;;
18172;SDS011;9211;48.818;9.312;2024-03-23T00:56:23;14.35;;;7.35;;
18172;SDS011;9211;48.818;9.312;2024-03-23T00:58:50;13.70;;;7.05;;
18172;SDS011;9211;48.818;9.312;2024-03-23T01:01:16;11.32;;;7.00;;
18172;SDS011;9211;48.818;9.312;2024-03-23T01:03:43;11.80;;;6.67;;
18172;SDS011;9211;48.818;9.312;2024-03-23T01:06:09;13.00;;;6.90;;
18172;SDS011;9211;48.818;9.312;2024-03-23T01:08:38;14.98;;;7.50;;
18172;SDS011;9211;48.818;9.312;2024-03-23T01:11:04;13.07;;;7.05;;
18172;SDS011;9211;48.818;9.312;2024-03-23T01:13:32;11.18;;;6.45;;
18172;SDS011;9211;48.818;9.312;2024-03-23T01:15:58;11.32;;;6.80;;
18172;SDS011;9211;48.818;9.312;2024-03-23T01:18:25;11.35;;;6.65;;
18172;SDS011;9211;48.818;9.312;2024-03-23T01:20:51;11.98;;;6.55;;
18172;SDS011;9211;48.818;9.312;2024-03-23T01:23:18;10.93;;;6.38;;
18172;SDS011;9211;48.818;9.312;2024-03-23T01:25:52;13.90;;;6.47;;
18172;SDS011;9211;48.818;9.312;2024-03-23T01:28:19;9.50;;;6.30;;
18172;SDS011;9211;48.818;9.312;2024-03-23T01:30:46;13.05;;;6.65;;
18172;SDS011;9211;48.818;9.312;2024-03-23T01:33:13;10.40;;;6.47;;
18172;SDS011;9211;48.818;9.312;2024-03-23T01:35:39;10.93;;;6.45;;
18172;SDS011;9211;48.818;9.312;2024-03-23T01:38:06;13.20;;;6.30;;
18172;SDS011;9211;48.818;9.312;2024-03-23T01:40:33;13.45;;;6.70;;
18172;SDS011;9211;48.818;9.312;2024-03-23T01:43:03;10.48;;;6.43;;
18172;SDS011;9211;48.818;9.312;2024-03-23T01:45:30;10.43;;;6.13;;
18172;SDS011;9211;48.818;9.312;2024-03-23T01:47:57;10.27;;;6.35;;
18172;SDS011;9211;48.818;9.312;2024-03-23T01:50:24;14.68;;;6.38;;
18172;SDS011;9211;48.818;9.312;2024-03-23T01:52:51;9.55;;;6.00;;
18172;SDS011;9211;48.818;9.312;2024-03-23T01:55:18;11.38;;;6.20;;
18172;SDS011;9211;48.818;9.312;2024-03-23T01:57:45;11.43;;;5.80;;
18172;SDS011;9211;48.818;9.312;2024-03-23T02:00:13;7.30;;;4.93;;
18172;SDS011;9211;48.818;9.312;2024-03-23T02:02:41;6.80;;;4.23;;
18172;SDS011;9211;48.818;9.312;2024-03-23T02:05:08;7.03;;;3.90;;
18172;SDS011;9211;48.818;9.312;2024-03-23T02:07:35;6.97;;;3.60;;
18172;SDS011;9211;48.818;9.312;2024-03-23T02:10:02;4.37;;;2.60;;
18172;SDS011;9211;48.818;9.312;2024-03-23T02:12:31;4.95;;;2.58;;
18172;SDS011;9211;48.818;9.312;2024-03-23T02:14:57;6.22;;;2.47;;
18172;SDS011;9211;48.818;9.312;2024-03-23T02:17:26;4.00;;;2.50;;
18172;SDS011;9211;48.818;9.312;2024-03-23T02:19:52;8.13;;;2.50;;
18172;SDS011;9211;48.818;9.312;2024-03-23T02:22:19;4.55;;;2.30;;
18172;SDS011;9211;48.818;9.312;2024-03-23T02:24:47;5.78;;;2.40;;
18172;SDS011;9211;48.818;9.312;2024-03-23T02:27:14;4.75;;;2.30;;
18172;SDS011;9211;48.818;9.312;2024-03-23T02:29:40;6.03;;;2.05;;
18172;SDS011;9211;48.818;9.312;2024-03-23T02:32:07;4.25;;;2.15;;
18172;SDS011;9211;48.818;9.312;2024-03-23T02:34:34;3.83;;;2.00;;
18172;SDS011;9211;48.818;9.312;2024-03-23T02:37:01;5.05;;;2.22;;
18172;SDS011;9211;48.818;9.312;2024-03-23T02:39:28;5.32;;;2.55;;
18172;SDS011;9211;48.818;9.312;2024-03-23T02:41:57;5.00;;;2.23;;
18172;SDS011;9211;48.818;9.312;2024-03-23T02:44:23;3.15;;;2.10;;
18172;SDS011;9211;48.818;9.312;2024-03-23T02:46:50;6.38;;;2.33;;
18172;SDS011;9211;48.818;9.312;2024-03-23T02:49:16;6.93;;;2.30;;
18172;SDS011;9211;48.818;9.312;2024-03-23T02:51:43;4.10;;;2.17;;
18172;SDS011;9211;48.818;9.312;2024-03-23T02:54:10;4.57;;;2.00;;
18172;SDS011;9211;48.818;9.312;2024-03-23T02:56:37;4.65;;;2.15;;
18172;SDS011;9211;48.818;9.312;2024-03-23T02:59:05;5.83;;;2.40;;
18172;SDS011;9211;48.818;9.312;2024-03-23T03:01:32;4.38;;;2.10;;
18172;SDS011;9211;48.818;9.312;2024-03-23T03:03:59;4.80;;;2.30;;
18172;SDS011;9211;48.818;9.312;2024-03-23T03:06:27;4.20;;;2.03;;
18172;SDS011;9211;48.818;9.312;2024-03-23T03:08:53;3.70;;;2.00;;
18172;SDS011;9211;48.818;9.312;2024-03-23T03:11:21;5.68;;;2.03;;
18172;SDS011;9211;48.818;9.312;2024-03-23T03:13:47;6.05;;;2.00;;
18172;SDS011;9211;48.818;9.312;2024-03-23T03:16:15;3.97;;;2.10;;
18172;SDS011;9211;48.818;9.312;2024-03-23T03:18:42;3.80;;;1.85;;
18172;SDS011;9211;48.818;9.312;2024-03-23T03:21:11;4.45;;;1.92;;
18172;SDS011;9211;48.818;9.312;2024-03-23T03:23:37;3.90;;;2.00;;
18172;SDS011;9211;48.818;9.312;2024-03-23T03:26:05;3.60;;;2.05;;
18172;SDS011;9211;48.818;9.312;2024-03-23T03:28:31;3.33;;;2.00;;
18172;SDS011;9211;48.818;9.312;2024-03-23T03:31:00;5.50;;;2.10;;
18172;SDS011;9211;48.818;9.312;2024-03-23T03:33:27;4.10;;;1.90;;
18172;SDS011;9211;48.818;9.312;2024-03-23T03:35:55;5.30;;;2.00;;
18172;SDS011;9211;48.818;9.312;2024-03-23T03:38:21;3.50;;;1.83;;
18172;SDS011;9211;48.818;9.312;2024-03-23T03:40:48;3.38;;;2.20;;
18172;SDS011;9211;48.818;9.312;2024-03-23T03:43:14;3.70;;;2.08;;
18172;SDS011;9211;48.818;9.312;2024-03-23T03:45:42;3.75;;;2.00;;
18172;SDS011;9211;48.818;9.312;2024-03-23T03:48:08;4.35;;;2.10;;
18172;SDS011;9211;48.818;9.312;2024-03-23T03:50:36;5.57;;;2.00;;
18172;SDS011;9211;48.818;9.312;2024-03-23T03:53:03;6.55;;;2.13;;
18172;SDS011;9211;48.818;9.312;2024-03-23T03:55:30;4.85;;;2.00;;
18172;SDS011;9211;48.818;9.312;2024-03-23T03:57:57;5.90;;;2.20;;
18172;SDS011;9211;48.818;9.312;2024-03-23T04:00:24;6.10;;;2.05;;
18172;SDS011;9211;48.818;9.312;2024-03-23T04:02:50;5.80;;;1.80;;
18172;SDS011;9211;48.818;9.312;2024-03-23T04:05:17;3.83;;;2.20;;
18172;SDS011;9211;48.818;9.312;2024-03-23T04:07:46;4.57;;;1.87;;
18172;SDS011;9211;48.818;9.312;2024-03-23T04:10:13;4.97;;;1.88;;
18172;SDS011;9211;48.818;9.312;2024-03-23T04:12:40;4.57;;;2.10;;
18172;SDS011;9211;48.818;9.312;2024-03-23T04:15:07;4.07;;;1.90;;
18172;SDS011;9211;48.818;9.312;2024-03-23T04:17:33;3.13;;;1.70;;
18172;SDS011;9211;48.818;9.312;2024-03-23T04:20:01;3.17;;;1.95;;
18172;SDS011;9211;48.818;9.312;2024-03-23T04:22:28;2.90;;;1.80;;
18172;SDS011;9211;48.818;9.312;2024-03-23T04:24:56;3.27;;;1.93;;
18172;SDS011;9211;48.818;9.312;2024-03-23T04:27:23;4.93;;;1.90;;
18172;SDS011;9211;48.818;9.312;2024-03-23T04:29:51;5.22;;;2.20;;
18172;SDS011;9211;48.818;9.312;2024-03-23T04:32:18;5.68;;;2.35;;
18172;SDS011;9211;48.818;9.312;2024-03-23T04:34:45;5.20;;;2.30;;
18172;SDS011;9211;48.818;9.312;2024-03-23T04:37:11;3.85;;;2.10;;
18172;SDS011;9211;48.818;9.312;2024-03-23T04:39:39;4.77;;;2.10;;
18172;SDS011;9211;48.818;9.312;2024-03-23T04:42:08;4.85;;;2.05;;
18172;SDS011;9211;48.818;9.312;2024-03-23T04:44:35;6.70;;;2.75;;
18172;SDS011;9211;48.818;9.312;2024-03-23T04:47:03;9.18;;;3.45;;
18172;SDS011;9211;48.818;9.312;2024-03-23T04:49:32;10.48;;;3.15;;
18172;SDS011;9211;48.818;9.312;2024-03-23T04:52:04;6.83;;;3.40;;
18172;SDS011;9211;48.818;9.312;2024-03-23T04:54:31;6.55;;;3.63;;
18172;SDS011;9211;48.818;9.312;2024-03-23T04:56:58;8.55;;;3.80;;
18172;SDS011;9211;48.818;9.312;2024-03-23T04:59:27;7.72;;;4.50;;
18172;SDS011;9211;48.818;9.312;2024-03-23T05:01:53;7.38;;;4.40;;
18172;SDS011;9211;48.818;9.312;2024-03-23T05:04:20;8.98;;;4.80;;
18172;SDS011;9211;48.818;9.312;2024-03-23T05:06:47;10.47;;;5.63;;
18172;SDS011;9211;48.818;9.312;2024-03-23T05:09:14;9.80;;;6.60;;
18172;SDS011;9211;48.818;9.312;2024-03-23T05:11:40;15.00;;;7.70;;
18172;SDS011;9211;48.818;9.312;2024-03-23T05:14:08;14.50;;;8.45;;
18172;SDS011;9211;48.818;9.312;2024-03-23T05:16:35;16.52;;;9.02;;
18172;SDS011;9211;48.818;9.312;2024-03-23T05:19:02;15.35;;;10.23;;
18172;SDS011;9211;48.818;9.312;2024-03-23T05:21:30;17.83;;;10.27;;
18172;SDS011;9211;48.818;9.312;2024-03-23T05:23:56;18.55;;;11.10;;
18172;SDS011;9211;48.818;9.312;2024-03-23T05:26:23;20.08;;;11.65;;
18172;SDS011;9211;48.818;9.312;2024-03-23T05:28:50;18.77;;;11.27;;
18172;SDS011;9211;48.818;9.312;2024-03-23T05:31:22;19.30;;;11.40;;
18172;SDS011;9211;48.818;9.312;2024-03-23T05:33:50;19.15;;;11.85;;
18172;SDS011;9211;48.818;9.312;2024-03-23T05:36:17;21.45;;;11.75;;
18172;SDS011;9211;48.818;9.312;2024-03-23T05:38:44;19.40;;;11.73;;
18172;SDS011;9211;48.818;9.312;2024-03-23T05:41:11;19.88;;;11.68;;
18172;SDS011;9211;48.818;9.312;2024-03-23T05:43:38;21.80;;;12.65;;
18172;SDS011;9211;48.818;9.312;2024-03-23T05:46:05;19.85;;;12.10;;
18172;SDS011;9211;48.818;9.312;2024-03-23T05:48:32;21.37;;;12.17;;
18172;SDS011;9211;48.818;9.312;2024-03-23T05:51:01;20.85;;;12.25;;
18172;SDS011;9211;48.818;9.312;2024-03-23T05:53:28;20.88;;;12.20;;
18172;SDS011;9211;48.818;9.312;2024-03-23T05:56:00;19.75;;;12.25;;
18172;SDS011;9211;48.818;9.312;2024-03-23T05:58:28;18.95;;;12.13;;
18172;SDS011;9211;48.818;9.312;2024-03-23T06:00:59;18.77;;;11.77;;
18172;SDS011;9211;48.818;9.312;2024-03-23T06:03:26;18.73;;;11.03;;
18172;SDS011;9211;48.818;9.312;2024-03-23T06:05:53;18.88;;;11.13;;
18172;SDS011;9211;48.818;9.312;2024-03-23T06:08:21;19.23;;;11.70;;
18172;SDS011;9211;48.818;9.312;2024-03-23T06:10:49;13.23;;;7.45;;
18172;SDS011;9211;48.818;9.312;2024-03-23T06:13:15;8.80;;;5.25;;
18172;SDS011;9211;48.818;9.312;2024-03-23T06:15:43;7.55;;;4.18;;
18172;SDS011;9211;48.818;9.312;2024-03-23T06:18:10;6.25;;;3.90;;
18172;SDS011;9211;48.818;9.312;2024-03-23T06:20:37;5.73;;;3.43;;
18172;SDS011;9211;48.818;9.312;2024-03-23T06:23:04;5.60;;;3.05;;
18172;SDS011;9211;48.818;9.312;2024-03-23T06:25:33;6.15;;;3.53;;
18172;SDS011;9211;48.818;9.312;2024-03-23T06:27:59;4.32;;;2.63;;
18172;SDS011;9211;48.818;9.312;2024-03-23T06:30:27;4.30;;;2.60;;
18172;SDS011;9211;48.818;9.312;2024-03-23T06:32:54;5.97;;;2.80;;
18172;SDS011;9211;48.818;9.312;2024-03-23T06:35:22;4.28;;;2.28;;
18172;SDS011;9211;48.818;9.312;2024-03-23T06:37:48;4.00;;;2.60;;
18172;SDS011;9211;48.818;9.312;2024-03-23T06:40:15;4.47;;;2.70;;
18172;SDS011;9211;48.818;9.312;2024-03-23T06:42:43;5.53;;;2.65;;
18172;SDS011;9211;48.818;9.312;2024-03-23T06:45:10;3.92;;;2.13;;
18172;SDS011;9211;48.818;9.312;2024-03-23T06:47:36;4.68;;;2.20;;
18172;SDS011;9211;48.818;9.312;2024-03-23T06:50:04;2.90;;;1.70;;
18172;SDS011;9211;48.818;9.312;2024-03-23T06:52:30;3.10;;;1.45;;
18172;SDS011;9211;48.818;9.312;2024-03-23T06:54:58;2.92;;;1.52;;
18172;SDS011;9211;48.818;9.312;2024-03-23T06:57:24;3.00;;;1.20;;
18172;SDS011;9211;48.818;9.312;2024-03-23T06:59:52;1.98;;;1.20;;
18172;SDS011;9211;48.818;9.312;2024-03-23T07:02:19;2.83;;;1.33;;
18172;SDS011;9211;48.818;9.312;2024-03-23T07:04:46;4.25;;;1.10;;
18172;SDS011;9211;48.818;9.312;2024-03-23T07:07:12;1.00;;;0.75;;
18172;SDS011;9211;48.818;9.312;2024-03-23T07:09:40;2.37;;;1.10;;
18172;SDS011;9211;48.818;9.312;2024-03-23T07:12:06;1.80;;;0.80;;
18172;SDS011;9211;48.818;9.312;2024-03-23T07:14:33;1.50;;;0.97;;
18172;SDS011;9211;48.818;9.312;2024-03-23T07:17:01;2.65;;;1.10;;
18172;SDS011;9211;48.818;9.312;2024-03-23T07:19:28;1.58;;;0.98;;
18172;SDS011;9211;48.818;9.312;2024-03-23T07:21:54;1.98;;;0.75;;
18172;SDS011;9211;48.818;9.312;2024-03-23T07:24:22;2.53;;;1.50;;
18172;SDS011;9211;48.818;9.312;2024-03-23T07:26:48;1.10;;;0.63;;
18172;SDS011;9211;48.818;9.312;2024-03-23T07:29:16;1.02;;;0.77;;
18172;SDS011;9211;48.818;9.312;2024-03-23T07:31:42;1.00;;;0.60;;
18172;SDS011;9211;48.818;9.312;2024-03-23T07:34:11;1.10;;;0.60;;
18172;SDS011;9211;48.818;9.312;2024-03-23T07:36:39;0.95;;;0.80;;
18172;SDS011;9211;48.818;9.312;2024-03-23T07:39:06;0.77;;;0.60;;
18172;SDS011;9211;48.818;9.312;2024-03-23T07:41:33;1.00;;;0.60;;
18172;SDS011;9211;48.818;9.312;2024-03-23T07:44:00;0.90;;;0.77;;
18172;SDS011;9211;48.818;9.312;2024-03-23T07:46:26;0.73;;;0.57;;
18172;SDS011;9211;48.818;9.312;2024-03-23T07:48:54;0.95;;;0.60;;
18172;SDS011;9211;48.818;9.312;2024-03-23T07:51:21;0.70;;;0.57;;
18172;SDS011;9211;48.818;9.312;2024-03-23T07:53:49;1.42;;;0.50;;
18172;SDS011;9211;48.818;9.312;2024-03-23T07:56:15;0.73;;;0.55;;
18172;SDS011;9211;48.818;9.312;2024-03-23T07:58:44;1.07;;;0.47;;
18172;SDS011;9211;48.818;9.312;2024-03-23T08:01:10;0.70;;;0.40;;
18172;SDS011;9211;48.818;9.312;2024-03-23T08:03:38;1.10;;;0.50;;
18172;SDS011;9211;48.818;9.312;2024-03-23T08:06:09;0.70;;;0.50;;
18172;SDS011;9211;48.818;9.312;2024-03-23T08:08:38;0.68;;;0.50;;
18172;SDS011;9211;48.818;9.312;2024-03-23T08:11:04;0.90;;;0.50;;
18172;SDS011;9211;48.818;9.312;2024-03-23T08:13:32;1.50;;;0.90;;
18172;SDS011;9211;48.818;9.312;2024-03-23T08:15:58;1.60;;;0.90;;
18172;SDS011;9211;48.818;9.312;2024-03-23T08:18:26;2.05;;;1.23;;
18172;SDS011;9211;48.818;9.312;2024-03-23T08:20:55;0.82;;;0.63;;
18172;SDS011;9211;48.818;9.312;2024-03-23T08:23:23;0.77;;;0.52;;
18172;SDS011;9211;48.818;9.312;2024-03-23T08:25:51;0.73;;;0.50;;
18172;SDS011;9211;48.818;9.312;2024-03-23T08:28:18;0.50;;;0.43;;
18172;SDS011;9211;48.818;9.312;2024-03-23T08:30:44;0.70;;;0.47;;
18172;SDS011;9211;48.818;9.312;2024-03-23T08:33:12;0.85;;;0.50;;
18172;SDS011;9211;48.818;9.312;2024-03-23T08:35:38;1.40;;;0.60;;
18172;SDS011;9211;48.818;9.312;2024-03-23T08:38:05;0.50;;;0.40;;
18172;SDS011;9211;48.818;9.312;2024-03-23T08:40:32;1.10;;;0.70;;
18172;SDS011;9211;48.818;9.312;2024-03-23T08:43:00;0.40;;;0.40;;
18172;SDS011;9211;48.818;9.312;2024-03-23T08:45:27;1.90;;;0.65;;
18172;SDS011;9211;48.818;9.312;2024-03-23T08:47:54;1.38;;;0.60;;
18172;SDS011;9211;48.818;9.312;2024-03-23T08:50:20;2.30;;;0.68;;
18172;SDS011;9211;48.818;9.312;2024-03-23T08:52:50;3.03;;;1.10;;
18172;SDS011;9211;48.818;9.312;2024-03-23T08:55:16;2.40;;;0.80;;
18172;SDS011;9211;48.818;9.312;2024-03-23T08:57:44;4.22;;;1.20;;
18172;SDS011;9211;48.818;9.312;2024-03-23T09:00:12;4.97;;;1.00;;
18172;SDS011;9211;48.818;9.312;2024-03-23T09:02:40;4.20;;;1.20;;
18172;SDS011;9211;48.818;9.312;2024-03-23T09:05:07;5.05;;;1.50;;
18172;SDS011;9211;48.818;9.312;2024-03-23T09:07:34;6.28;;;1.80;;
18172;SDS011;9211;48.818;9.312;2024-03-23T09:10:00;4.03;;;1.60;;
18172;SDS011;9211;48.818;9.312;2024-03-23T09:12:27;3.45;;;1.40;;
18172;SDS011;9211;48.818;9.312;2024-03-23T09:14:54;5.85;;;1.52;;
18172;SDS011;9211;48.818;9.312;2024-03-23T09:17:22;5.63;;;1.48;;
18172;SDS011;9211;48.818;9.312;2024-03-23T09:19:49;4.50;;;1.63;;
18172;SDS011;9211;48.818;9.312;2024-03-23T09:22:16;4.47;;;1.60;;
18172;SDS011;9211;48.818;9.312;2024-03-23T09:24:42;6.38;;;2.10;;
18172;SDS011;9211;48.818;9.312;2024-03-23T09:27:09;6.45;;;2.00;;
18172;SDS011;9211;48.818;9.312;2024-03-23T09:29:35;6.80;;;1.95;;
18172;SDS011;9211;48.818;9.312;2024-03-23T09:32:03;7.97;;;2.20;;
18172;SDS011;9211;48.818;9.312;2024-03-23T09:34:30;6.22;;;2.20;;
18172;SDS011;9211;48.818;9.312;2024-03-23T09:36:58;5.87;;;2.40;;
18172;SDS011;9211;48.818;9.312;2024-03-23T09:39:24;8.75;;;2.50;;
18172;SDS011;9211;48.818;9.312;2024-03-23T09:41:56;8.77;;;2.70;;
18172;SDS011;9211;48.818;9.312;2024-03-23T09:44:22;8.02;;;2.70;;
18172;SDS011;9211;48.818;9.312;2024-03-23T09:46:51;9.23;;;2.70;;
18172;SDS011;9211;48.818;9.312;2024-03-23T09:49:17;9.07;;;2.50;;
18172;SDS011;9211;48.818;9.312;2024-03-23T09:51:46;8.38;;;2.65;;
18172;SDS011;9211;48.818;9.312;2024-03-23T09:54:12;6.78;;;2.38;;
18172;SDS011;9211;48.818;9.312;2024-03-23T09:56:39;10.48;;;2.50;;
18172;SDS011;9211;48.818;9.312;2024-03-23T09:59:06;8.90;;;2.53;;
18172;SDS011;9211;48.818;9.312;2024-03-23T10:01:33;9.02;;;2.78;;
18172;SDS011;9211;48.818;9.312;2024-03-23T10:03:59;6.88;;;2.70;;
18172;SDS011;9211;48.818;9.312;2024-03-23T10:06:27;7.93;;;2.38;;
18172;SDS011;9211;48.818;9.312;2024-03-23T10:08:54;9.23;;;2.80;;
18172;SDS011;9211;48.818;9.312;2024-03-23T10:11:21;9.52;;;2.65;;
18172;SDS011;9211;48.818;9.312;2024-03-23T10:13:48;7.20;;;2.67;;
18172;SDS011;9211;48.818;9.312;2024-03-23T10:16:22;8.95;;;2.60;;
18172;SDS011;9211;48.818;9.312;2024-03-23T10:18:49;10.98;;;3.10;;
18172;SDS011;9211;48.818;9.312;2024-03-23T10:21:16;7.70;;;2.97;;
18172;SDS011;9211;48.818;9.312;2024-03-23T10:23:43;9.40;;;3.20;;
18172;SDS011;9211;48.818;9.312;2024-03-23T10:26:18;8.45;;;2.88;;
18172;SDS011;9211;48.818;9.312;2024-03-23T10:28:53;10.07;;;3.10;;
18172;SDS011;9211;48.818;9.312;2024-03-23T10:31:22;10.80;;;3.40;;
18172;SDS011;9211;48.818;9.312;2024-03-23T10:33:48;14.55;;;3.33;;
18172;SDS011;9211;48.818;9.312;2024-03-23T10:36:18;10.60;;;2.95;;
18172;SDS011;9211;48.818;9.312;2024-03-23T10:38:45;9.15;;;3.20;;
18172;SDS011;9211;48.818;9.312;2024-03-23T10:41:13;8.57;;;3.03;;
18172;SDS011;9211;48.818;9.312;2024-03-23T10:43:41;10.00;;;2.95;;
18172;SDS011;9211;48.818;9.312;2024-03-23T10:46:09;8.35;;;3.00;;
18172;SDS011;9211;48.818;9.312;2024-03-23T10:48:35;13.10;;;3.10;;
18172;SDS011;9211;48.818;9.312;2024-03-23T10:51:03;10.05;;;3.10;;
18172;SDS011;9211;48.818;9.312;2024-03-23T10:53:30;9.32;;;3.03;;
18172;SDS011;9211;48.818;9.312;2024-03-23T10:55:59;8.10;;;2.58;;
18172;SDS011;9211;48.818;9.312;2024-03-23T10:58:27;10.05;;;2.90;;
18172;SDS011;9211;48.818;9.312;2024-03-23T11:00:57;8.65;;;2.70;;
18172;SDS011;9211;48.818;9.312;2024-03-23T11:03:30;8.82;;;3.38;;
18172;SDS011;9211;48.818;9.312;2024-03-23T11:05:58;9.88;;;3.70;;
18172;SDS011;9211;48.818;9.312;2024-03-23T11:08:31;10.60;;;3.92;;
18172;SDS011;9211;48.818;9.312;2024-03-23T11:11:13;12.65;;;4.00;;
18172;SDS011;9211;48.818;9.312;2024-03-23T11:13:39;15.27;;;4.20;;
18172;SDS011;9211;48.818;9.312;2024-03-23T11:16:15;9.90;;;4.07;;
18172;SDS011;9211;48.818;9.312;2024-03-23T11:18:41;9.43;;;3.78;;
18172;SDS011;9211;48.818;9.312;2024-03-23T11:21:09;6.63;;;3.10;;
18172;SDS011;9211;48.818;9.312;2024-03-23T11:23:35;7.65;;;3.50;;
18172;SDS011;9211;48.818;9.312;2024-03-23T11:26:02;7.22;;;3.10;;
18172;SDS011;9211;48.818;9.312;2024-03-23T11:28:32;8.55;;;3.50;;
18172;SDS011;9211;48.818;9.312;2024-03-23T11:31:00;7.72;;;3.40;;
18172;SDS011;9211;48.818;9.312;2024-03-23T11:33:27;9.88;;;3.35;;
18172;SDS011;9211;48.818;9.312;2024-03-23T11:35:55;9.18;;;3.67;;
18172;SDS011;9211;48.818;9.312;2024-03-23T11:38:22;8.93;;;3.40;;
18172;SDS011;9211;48.818;9.312;2024-03-23T11:40:49;7.32;;;3.70;;
18172;SDS011;9211;48.818;9.312;2024-03-23T11:43:16;10.40;;;4.05;;
18172;SDS011;9211;48.818;9.312;2024-03-23T11:45:44;7.78;;;3.08;;
18172;SDS011;9211;48.818;9.312;2024-03-23T11:48:11;6.10;;;2.80;;
18172;SDS011;9211;48.818;9.312;2024-03-23T11:50:42;6.80;;;3.00;;
18172;SDS011;9211;48.818;9.312;2024-03-23T11:53:11;5.63;;;2.90;;
18172;SDS011;9211;48.818;9.312;2024-03-23T11:55:42;5.65;;;2.63;;
18172;SDS011;9211;48.818;9.312;2024-03-23T11:58:12;6.43;;;2.45;;
18172;SDS011;9211;48.818;9.312;2024-03-23T12:00:39;5.65;;;2.42;;
18172;SDS011;9211;48.818;9.312;2024-03-23T12:03:06;6.43;;;2.78;;
18172;SDS011;9211;48.818;9.312;2024-03-23T12:05:33;5.53;;;2.83;;
18172;SDS011;9211;48.818;9.312;2024-03-23T12:08:17;6.50;;;2.50;;
18172;SDS011;9211;48.818;9.312;2024-03-23T12:10:47;5.50;;;2.15;;
18172;SDS011;9211;48.818;9.312;2024-03-23T12:13:14;6.00;;;1.80;;
18172;SDS011;9211;48.818;9.312;2024-03-23T12:15:42;6.60;;;2.00;;
18172;SDS011;9211;48.818;9.312;2024-03-23T12:18:09;5.55;;;1.90;;
18172;SDS011;9211;48.818;9.312;2024-03-23T12:20:37;6.13;;;1.77;;
18172;SDS011;9211;48.818;9.312;2024-03-23T12:23:07;7.75;;;1.70;;
18172;SDS011;9211;48.818;9.312;2024-03-23T12:25:39;5.90;;;1.60;;
18172;SDS011;9211;48.818;9.312;2024-03-23T12:28:06;5.97;;;1.92;;
18172;SDS011;9211;48.818;9.312;2024-03-23T12:30:34;7.57;;;2.33;;
18172;SDS011;9211;48.818;9.312;2024-03-23T12:33:01;5.97;;;1.80;;
18172;SDS011;9211;48.818;9.312;2024-03-23T12:35:29;6.38;;;1.70;;
18172;SDS011;9211;48.818;9.312;2024-03-23T12:37:55;6.25;;;1.75;;
18172;SDS011;9211;48.818;9.312;2024-03-23T12:40:23;7.10;;;2.00;;
18172;SDS011;9211;48.818;9.312;2024-03-23T12:42:50;6.33;;;2.00;;
18172;SDS011;9211;48.818;9.312;2024-03-23T12:45:17;10.57;;;1.67;;
18172;SDS011;9211;48.818;9.312;2024-03-23T12:47:44;8.38;;;1.90;;
18172;SDS011;9211;48.818;9.312;2024-03-23T12:50:11;7.90;;;1.67;;
18172;SDS011;9211;48.818;9.312;2024-03-23T12:52:37;7.80;;;1.77;;
18172;SDS011;9211;48.818;9.312;2024-03-23T12:55:05;7.40;;;1.73;;
18172;SDS011;9211;48.818;9.312;2024-03-23T12:57:32;8.10;;;2.00;;
18172;SDS011;9211;48.818;9.312;2024-03-23T13:00:01;7.40;;;1.87;;
18172;SDS011;9211;48.818;9.312;2024-03-23T13:02:28;9.13;;;2.42;;
18172;SDS011;9211;48.818;9.312;2024-03-23T13:04:55;8.75;;;2.00;;
18172;SDS011;9211;48.818;9.312;2024-03-23T13:07:22;10.40;;;2.70;;
18172;SDS011;9211;48.818;9.312;2024-03-23T13:09:50;8.10;;;1.90;;
18172;SDS011;9211;48.818;9.312;2024-03-23T13:12:16;5.70;;;1.80;;
18172;SDS011;9211;48.818;9.312;2024-03-23T13:14:45;7.85;;;2.00;;
18172;SDS011;9211;48.818;9.312;2024-03-23T13:17:13;8.30;;;2.20;;
18172;SDS011;9211;48.818;9.312;2024-03-23T13:19:40;8.57;;;2.05;;
18172;SDS011;9211;48.818;9.312;2024-03-23T13:22:06;7.65;;;2.30;;
18172;SDS011;9211;48.818;9.312;2024-03-23T13:24:36;6.82;;;1.80;;
18172;SDS011;9211;48.818;9.312;2024-03-23T13:27:02;9.52;;;2.00;;
18172;SDS011;9211;48.818;9.312;2024-03-23T13:29:33;11.52;;;2.10;;
18172;SDS011;9211;48.818;9.312;2024-03-23T13:31:59;9.40;;;1.98;;
18172;SDS011;9211;48.818;9.312;2024-03-23T13:34:28;5.78;;;1.63;;
18172;SDS011;9211;48.818;9.312;2024-03-23T13:36:55;6.25;;;1.77;;
18172;SDS011;9211;48.818;9.312;2024-03-23T13:39:23;6.78;;;1.83;;
18172;SDS011;9211;48.818;9.312;2024-03-23T13:41:50;8.32;;;1.90;;
18172;SDS011;9211;48.818;9.312;2024-03-23T13:44:17;8.27;;;2.13;;
18172;SDS011;9211;48.818;9.312;2024-03-23T13:46:44;8.93;;;1.80;;
18172;SDS011;9211;48.818;9.312;2024-03-23T13:49:25;6.07;;;1.50;;
18172;SDS011;9211;48.818;9.312;2024-03-23T13:51:56;6.82;;;1.60;;
18172;SDS011;9211;48.818;9.312;2024-03-23T13:54:24;8.07;;;1.70;;
18172;SDS011;9211;48.818;9.312;2024-03-23T13:56:50;6.72;;;1.80;;
18172;SDS011;9211;48.818;9.312;2024-03-23T13:59:17;7.20;;;1.80;;
18172;SDS011;9211;48.818;9.312;2024-03-23T14:01:43;6.25;;;1.55;;
18172;SDS011;9211;48.818;9.312;2024-03-23T14:04:11;6.30;;;1.85;;
18172;SDS011;9211;48.818;9.312;2024-03-23T14:06:37;6.32;;;1.40;;
18172;SDS011;9211;48.818;9.312;2024-03-23T14:09:06;5.82;;;1.30;;
18172;SDS011;9211;48.818;9.312;2024-03-23T14:11:34;5.15;;;1.50;;
18172;SDS011;9211;48.818;9.312;2024-03-23T14:14:01;6.43;;;1.25;;
18172;SDS011;9211;48.818;9.312;2024-03-23T14:16:28;2.67;;;1.00;;
18172;SDS011;9211;48.818;9.312;2024-03-23T14:18:55;4.07;;;1.20;;
18172;SDS011;9211;48.818;9.312;2024-03-23T14:21:22;5.78;;;1.38;;
18172;SDS011;9211;48.818;9.312;2024-03-23T14:23:49;6.35;;;1.80;;
18172;SDS011;9211;48.818;9.312;2024-03-23T14:26:17;6.32;;;1.75;;
18172;SDS011;9211;48.818;9.312;2024-03-23T14:28:48;7.20;;;1.60;;
18172;SDS011;9211;48.818;9.312;2024-03-23T14:31:15;5.78;;;1.40;;
18172;SDS011;9211;48.818;9.312;2024-03-23T14:33:42;3.73;;;1.20;;
18172;SDS011;9211;48.818;9.312;2024-03-23T14:36:11;2.83;;;1.00;;
18172;SDS011;9211;48.818;9.312;2024-03-23T14:38:39;3.88;;;1.30;;
18172;SDS011;9211;48.818;9.312;2024-03-23T14:41:05;3.70;;;1.20;;
18172;SDS011;9211;48.818;9.312;2024-03-23T14:43:34;5.00;;;1.42;;
18172;SDS011;9211;48.818;9.312;2024-03-23T14:46:07;4.75;;;1.33;;
18172;SDS011;9211;48.818;9.312;2024-03-23T14:48:35;3.55;;;1.20;;
18172;SDS011;9211;48.818;9.312;2024-03-23T14:51:01;2.85;;;1.00;;
18172;SDS011;9211;48.818;9.312;2024-03-23T14:53:30;2.78;;;0.80;;
18172;SDS011;9211;48.818;9.312;2024-03-23T14:55:56;2.95;;;1.00;;
18172;SDS011;9211;48.818;9.312;2024-03-23T14:58:25;3.30;;;1.20;;
18172;SDS011;9211;48.818;9.312;2024-03-23T15:00:57;3.42;;;1.10;;
18172;SDS011;9211;48.818;9.312;2024-03-23T15:03:26;4.72;;;1.58;;
18172;SDS011;9211;48.818;9.312;2024-03-23T15:05:53;5.20;;;1.30;;
18172;SDS011;9211;48.818;9.312;2024-03-23T15:08:20;4.45;;;1.20;;
18172;SDS011;9211;48.818;9.312;2024-03-23T15:10:47;5.43;;;1.30;;
18172;SDS011;9211;48.818;9.312;2024-03-23T15:13:13;6.75;;;1.60;;
18172;SDS011;9211;48.818;9.312;2024-03-23T15:15:41;3.40;;;1.35;;
18172;SDS011;9211;48.818;9.312;2024-03-23T15:18:10;6.97;;;1.40;;
18172;SDS011;9211;48.818;9.312;2024-03-23T15:20:40;6.03;;;1.30;;
18172;SDS011;9211;48.818;9.312;2024-03-23T15:23:06;3.85;;;1.13;;
18172;SDS011;9211;48.818;9.312;2024-03-23T15:25:33;4.72;;;1.30;;
18172;SDS011;9211;48.818;9.312;2024-03-23T15:27:59;3.03;;;0.90;;
18172;SDS011;9211;48.818;9.312;2024-03-23T15:30:30;4.53;;;1.20;;
18172;SDS011;9211;48.818;9.312;2024-03-23T15:32:56;2.58;;;0.90;;
18172;SDS011;9211;48.818;9.312;2024-03-23T15:35:25;2.17;;;0.90;;
18172;SDS011;9211;48.818;9.312;2024-03-23T15:37:51;3.72;;;0.85;;
18172;SDS011;9211;48.818;9.312;2024-03-23T15:40:19;2.85;;;0.93;;
18172;SDS011;9211;48.818;9.312;2024-03-23T15:42:45;2.33;;;0.82;;
18172;SDS011;9211;48.818;9.312;2024-03-23T15:45:12;3.08;;;0.80;;
18172;SDS011;9211;48.818;9.312;2024-03-23T15:47:41;3.00;;;0.85;;
18172;SDS011;9211;48.818;9.312;2024-03-23T15:50:08;2.63;;;0.90;;